EFHK/HEL METAR and TAF weather

Enter ICAO airport designator
Station Type Date Time Source
EFHK METAR 2022/07/01 01:20 UTC NOAA

EFHK 010120Z 07005KT 040V160 CAVOK 16/11 Q1020 NOSIG


Station Type Date Time Source
EFHK Decoded METAR 2022/07/01 01:20 UTC NOAA

Helsinki-Vantaa, Finland (EFHK) 60-19N 024-58E 56M
Jun 30, 2022 - 09:20 PM EDT / 2022.07.01 0120 UTC
Wind: from the ENE (070 degrees) at 6 MPH (5 KT) (direction variable):0
Visibility: greater than 7 mile(s):0
Temperature: 60 F (16 C)
Dew Point: 51 F (11 C)
Relative Humidity: 72%
Pressure (altimeter): 30.12 in. Hg (1020 hPa)
ob: EFHK 010120Z 07005KT 040V160 CAVOK 16/11 Q1020 NOSIG
cycle: 1

Station Type Date Time Source
EFHK TAF 2022/06/30 21:42 UTC NOAA

TAF TAF EFHK 302022Z 3021/0121 VRB02KT CAVOK
BECMG 0108/0110 13010KT

Example: see airport list